createdAt,value
2019-01-29T00:01:51.251Z,1.40
2019-01-29T00:04:41.758Z,1.40
2019-01-29T00:07:30.662Z,1.50
2019-01-29T00:10:19.526Z,1.50
2019-01-29T00:13:10.002Z,1.50
2019-01-29T00:15:58.859Z,1.50
2019-01-29T00:18:53.427Z,1.50
2019-01-29T00:21:42.265Z,1.60
2019-01-29T00:24:31.131Z,1.60
2019-01-29T00:27:20.082Z,1.60
2019-01-29T00:30:30.063Z,1.60
2019-01-29T00:33:18.986Z,1.60
2019-01-29T00:36:07.844Z,1.60
2019-01-29T00:38:56.675Z,1.60
2019-01-29T00:41:45.622Z,1.60
2019-01-29T00:44:34.450Z,1.60
2019-01-29T00:47:41.059Z,1.70
2019-01-29T00:50:29.986Z,1.70
2019-01-29T00:53:20.515Z,1.60
2019-01-29T00:56:28.803Z,1.60
2019-01-29T00:59:37.125Z,1.60
2019-01-29T01:02:27.712Z,1.60
2019-01-29T01:05:16.722Z,1.60
2019-01-29T01:08:25.070Z,1.60
2019-01-29T01:11:13.933Z,1.60
2019-01-29T01:14:02.912Z,1.60
2019-01-29T01:17:11.191Z,1.50
2019-01-29T01:19:53.631Z,1.40
2019-01-29T01:22:50.337Z,1.30
2019-01-29T01:25:33.090Z,1.20
2019-01-29T01:28:21.946Z,1.10
2019-01-29T01:31:10.787Z,1.10
2019-01-29T01:33:59.710Z,1.10
2019-01-29T01:36:48.629Z,1.20
2019-01-29T01:39:56.894Z,1.20
2019-01-29T01:42:47.447Z,1.20
2019-01-29T01:45:36.367Z,1.20
2019-01-29T01:48:25.386Z,1.30
2019-01-29T01:51:15.927Z,1.30
2019-01-29T01:54:04.850Z,1.30
2019-01-29T01:56:53.766Z,1.30
2019-01-29T01:59:42.635Z,1.40
2019-01-29T02:03:08.544Z,1.40
2019-01-29T02:06:34.255Z,1.40
2019-01-29T02:09:23.174Z,1.40
2019-01-29T02:12:12.143Z,1.40
2019-01-29T02:15:20.438Z,1.40
2019-01-29T02:18:09.351Z,1.30
2019-01-29T02:20:51.374Z,1.30
2019-01-29T02:23:40.239Z,1.40
2019-01-29T02:26:29.079Z,1.40
2019-01-29T02:29:19.575Z,1.40
2019-01-29T02:32:08.420Z,1.40
2019-01-29T02:34:57.447Z,1.40
2019-01-29T02:37:46.403Z,1.50
2019-01-29T02:40:35.339Z,1.50
2019-01-29T02:43:24.345Z,1.50
2019-01-29T02:46:13.258Z,1.50
2019-01-29T02:49:02.099Z,1.50
2019-01-29T02:51:50.980Z,1.50
2019-01-29T02:54:39.918Z,1.50
2019-01-29T02:57:28.897Z,1.40
2019-01-29T03:03:40.693Z,1.30
2019-01-29T03:06:29.627Z,1.30
2019-01-29T03:09:20.098Z,1.20
2019-01-29T03:12:09.032Z,1.20
2019-01-29T03:14:57.936Z,1.20
2019-01-29T03:18:09.082Z,1.20
2019-01-29T03:20:59.447Z,1.10
2019-01-29T03:23:48.372Z,1.00
2019-01-29T03:29:46.912Z,0.90
2019-01-29T03:32:35.859Z,0.80
2019-01-29T03:35:24.861Z,0.70
2019-01-29T03:38:13.713Z,0.70
2019-01-29T03:41:01.818Z,0.80
2019-01-29T03:43:50.647Z,0.80
2019-01-29T03:46:39.571Z,0.90
2019-01-29T03:49:28.514Z,0.90
2019-01-29T03:52:17.358Z,0.90
2019-01-29T03:55:25.709Z,0.80
2019-01-29T04:01:11.594Z,0.80
2019-01-29T04:04:00.523Z,0.80
2019-01-29T04:06:49.430Z,0.70
2019-01-29T04:09:38.675Z,0.70
2019-01-29T04:12:27.526Z,0.80
2019-01-29T04:15:35.803Z,0.80
2019-01-29T04:18:26.303Z,0.80
2019-01-29T04:21:08.999Z,0.80
2019-01-29T04:23:57.854Z,0.80
2019-01-29T04:26:46.707Z,0.80
2019-01-29T04:29:35.659Z,0.80
2019-01-29T04:32:23.786Z,0.80
2019-01-29T04:35:11.803Z,0.80
2019-01-29T04:38:00.539Z,0.80
2019-01-29T04:40:49.394Z,0.80
2019-01-29T04:43:38.247Z,0.80
2019-01-29T04:46:26.321Z,0.70
2019-01-29T04:49:14.252Z,0.70
2019-01-29T04:52:03.827Z,0.60
2019-01-29T04:54:52.031Z,0.60
2019-01-29T04:57:39.993Z,0.60
2019-01-29T05:00:27.987Z,0.50
2019-01-29T05:03:16.849Z,0.60
2019-01-29T05:06:04.803Z,0.70
2019-01-29T05:08:54.443Z,0.70
2019-01-29T05:11:44.027Z,0.70
2019-01-29T05:14:31.971Z,0.70
2019-01-29T05:17:19.983Z,0.70
2019-01-29T05:20:20.947Z,0.80
2019-01-29T05:23:03.046Z,0.90
2019-01-29T05:25:51.163Z,1.00
2019-01-29T05:28:39.125Z,1.00
2019-01-29T05:31:46.641Z,1.00
2019-01-29T05:34:34.728Z,1.00
2019-01-29T05:37:22.694Z,1.10
2019-01-29T05:40:23.560Z,1.10
2019-01-29T05:50:17.338Z,1.10
2019-01-29T05:56:19.047Z,1.10
2019-01-29T05:59:00.356Z,1.10
2019-01-29T06:01:42.315Z,1.10
2019-01-29T06:04:26.877Z,0.80
2019-01-29T06:07:08.531Z,1.20
2019-01-29T06:09:49.647Z,1.10
2019-01-29T06:12:31.314Z,1.20
2019-01-29T06:15:12.596Z,1.20
2019-01-29T06:17:54.446Z,1.20
2019-01-29T06:20:35.972Z,1.20
2019-01-29T06:23:17.543Z,1.20
2019-01-29T06:25:59.210Z,1.20
2019-01-29T06:28:41.064Z,1.20
2019-01-29T06:31:23.107Z,1.30
2019-01-29T06:34:02.858Z,1.30
2019-01-29T06:36:51.065Z,1.20
2019-01-29T06:39:59.979Z,1.30
2019-01-29T06:42:51.162Z,1.30
2019-01-29T06:45:58.730Z,1.30
2019-01-29T06:52:30.951Z,1.30
2019-01-29T06:55:18.979Z,1.30
2019-01-29T06:58:06.910Z,1.30
2019-01-29T07:03:54.577Z,1.30
2019-01-29T07:07:02.059Z,1.40
2019-01-29T07:09:49.981Z,1.40
2019-01-29T07:12:38.010Z,1.40
2019-01-29T07:15:45.214Z,1.40
2019-01-29T07:18:52.638Z,1.40
2019-01-29T07:21:34.391Z,1.40
2019-01-29T07:24:16.208Z,1.40
2019-01-29T07:26:57.677Z,1.40
2019-01-29T07:29:39.610Z,1.40
2019-01-29T07:32:21.626Z,1.40
2019-01-29T07:35:03.411Z,1.40
2019-01-29T07:37:44.951Z,1.40
2019-01-29T07:47:18.931Z,1.50
2019-01-29T07:50:00.336Z,1.40
2019-01-29T07:52:42.257Z,1.50
2019-01-29T07:55:23.714Z,1.50
2019-01-29T07:58:05.971Z,1.40
2019-01-29T08:00:47.749Z,1.50
2019-01-29T08:03:29.755Z,1.50
2019-01-29T08:06:11.412Z,1.50
2019-01-29T08:08:53.319Z,1.50
2019-01-29T08:11:35.098Z,1.50
2019-01-29T08:14:17.072Z,1.60
2019-01-29T08:16:58.606Z,1.60
2019-01-29T08:19:40.394Z,1.70
2019-01-29T08:22:21.930Z,1.70
2019-01-29T08:25:03.786Z,1.80
2019-01-29T08:30:30.975Z,2.00
2019-01-29T08:33:12.783Z,2.10
2019-01-29T08:35:54.487Z,2.10
2019-01-29T08:38:37.534Z,2.10
2019-01-29T08:41:26.531Z,2.20
2019-01-29T08:44:15.576Z,2.30
2019-01-29T08:47:04.499Z,2.30
2019-01-29T08:49:53.464Z,2.30
2019-01-29T08:52:42.487Z,2.40
2019-01-29T08:55:51.003Z,2.30
2019-01-29T08:58:39.834Z,2.30
2019-01-29T09:04:56.139Z,2.30
2019-01-29T09:07:45.124Z,2.30
2019-01-29T09:10:34.199Z,2.30
2019-01-29T09:13:23.534Z,2.30
2019-01-29T09:19:12.344Z,2.50
2019-01-29T09:21:55.540Z,2.60
2019-01-29T09:24:44.631Z,2.70
2019-01-29T09:27:34.226Z,2.90
2019-01-29T09:33:14.555Z,2.90
2019-01-29T09:36:03.609Z,3.00
2019-01-29T09:38:52.519Z,3.10
2019-01-29T09:41:41.612Z,3.20
2019-01-29T09:44:32.169Z,3.40
2019-01-29T09:47:21.111Z,3.50
2019-01-29T09:50:29.381Z,3.60
2019-01-29T09:56:28.082Z,3.60
2019-01-29T09:59:17.112Z,3.50
2019-01-29T10:02:06.305Z,3.40
2019-01-29T10:04:54.684Z,3.40
2019-01-29T10:07:43.628Z,3.40
2019-01-29T10:10:32.538Z,3.50
2019-01-29T10:13:21.479Z,3.50
2019-01-29T10:16:11.948Z,3.60
2019-01-29T10:19:00.818Z,3.80
2019-01-29T10:21:41.368Z,4.20
2019-01-29T10:24:30.436Z,4.60
2019-01-29T10:27:19.562Z,4.60
2019-01-29T10:30:27.930Z,4.50
2019-01-29T10:33:17.110Z,4.20
2019-01-29T10:36:17.905Z,3.90
2019-01-29T10:39:16.159Z,3.80
2019-01-29T10:45:26.474Z,4.20
2019-01-29T10:48:33.947Z,4.30
2019-01-29T10:51:41.422Z,5.00
2019-01-29T10:54:29.503Z,5.20
2019-01-29T10:57:17.451Z,5.10
2019-01-29T11:02:54.747Z,4.60
2019-01-29T11:05:42.724Z,4.40
2019-01-29T11:08:30.780Z,4.30
2019-01-29T11:11:39.099Z,4.60
2019-01-29T11:14:28.167Z,5.00
2019-01-29T11:17:18.742Z,5.00
2019-01-29T11:20:28.298Z,5.00
2019-01-29T11:23:17.314Z,5.00
2019-01-29T11:26:06.370Z,5.00
2019-01-29T11:28:57.036Z,5.00
2019-01-29T11:31:46.191Z,4.70
2019-01-29T11:34:36.994Z,4.50
2019-01-29T11:37:25.938Z,4.30
2019-01-29T11:40:34.095Z,4.40
2019-01-29T11:43:23.045Z,4.60
2019-01-29T11:46:12.213Z,4.50
2019-01-29T11:49:02.907Z,4.50
2019-01-29T11:51:52.645Z,4.50
2019-01-29T11:54:59.910Z,4.70
2019-01-29T11:57:47.837Z,4.50
2019-01-29T12:03:39.386Z,4.40
2019-01-29T12:06:27.480Z,4.30
2019-01-29T12:09:15.438Z,4.40
2019-01-29T12:12:03.446Z,4.20
2019-01-29T12:14:51.422Z,4.10
2019-01-29T12:17:58.875Z,4.10
2019-01-29T12:20:40.606Z,4.00
2019-01-29T12:23:22.465Z,4.10
2019-01-29T12:26:03.551Z,4.20
2019-01-29T12:28:44.694Z,4.30
2019-01-29T12:31:29.160Z,4.40
2019-01-29T12:34:10.414Z,4.40
2019-01-29T12:36:52.111Z,4.50
2019-01-29T12:39:33.927Z,4.60
2019-01-29T12:42:15.319Z,4.60
2019-01-29T12:44:57.576Z,4.50
2019-01-29T12:47:46.510Z,4.50
2019-01-29T12:50:35.780Z,4.50
2019-01-29T12:53:44.253Z,4.40
2019-01-29T12:56:33.213Z,4.30
2019-01-29T13:02:13.064Z,4.20
2019-01-29T13:05:04.411Z,4.20
2019-01-29T13:07:53.360Z,4.20
2019-01-29T13:10:42.333Z,4.30
2019-01-29T13:13:31.659Z,4.50
2019-01-29T13:16:40.015Z,4.60
2019-01-29T13:19:29.022Z,4.80
2019-01-29T13:22:17.923Z,4.90
2019-01-29T13:25:26.257Z,4.70
2019-01-29T13:28:15.279Z,4.40
2019-01-29T13:31:04.348Z,4.30
2019-01-29T13:34:15.707Z,4.30
2019-01-29T13:37:04.740Z,4.20
2019-01-29T13:39:53.722Z,4.10
2019-01-29T13:42:35.923Z,4.00
2019-01-29T13:45:25.070Z,3.90
2019-01-29T13:48:24.322Z,3.90
2019-01-29T13:51:14.907Z,3.90
2019-01-29T13:54:23.952Z,3.80
2019-01-29T13:57:33.286Z,3.80
2019-01-29T14:00:43.956Z,3.80
2019-01-29T14:03:32.954Z,3.80
2019-01-29T14:06:41.298Z,3.80
2019-01-29T14:09:31.974Z,3.80
2019-01-29T14:12:20.927Z,3.80
2019-01-29T14:15:37.020Z,3.80
2019-01-29T14:18:25.921Z,3.80
2019-01-29T14:21:15.232Z,3.70
2019-01-29T14:24:23.613Z,3.70
2019-01-29T14:27:12.500Z,3.60
2019-01-29T14:30:03.375Z,3.60
2019-01-29T14:33:11.578Z,3.60
2019-01-29T14:36:00.643Z,3.50
2019-01-29T14:39:10.199Z,3.50
2019-01-29T14:41:59.393Z,3.50
2019-01-29T14:44:48.365Z,3.40
2019-01-29T14:50:55.090Z,3.30
2019-01-29T14:53:44.508Z,3.30
2019-01-29T14:56:33.415Z,3.30
2019-01-29T14:59:22.265Z,3.40
2019-01-29T15:02:11.201Z,3.30
2019-01-29T15:11:44.821Z,3.20
2019-01-29T15:14:53.198Z,3.20
2019-01-29T15:20:41.859Z,3.10
2019-01-29T15:23:31.010Z,3.10
2019-01-29T15:26:19.987Z,3.00
2019-01-29T15:29:09.026Z,2.90
2019-01-29T15:31:58.144Z,3.00
2019-01-29T15:34:47.186Z,3.00
2019-01-29T15:37:36.299Z,2.90
2019-01-29T15:40:25.235Z,2.80
2019-01-29T15:43:14.182Z,2.70
2019-01-29T15:46:03.162Z,2.60
2019-01-29T15:52:27.102Z,2.40
2019-01-29T15:56:00.223Z,2.20
2019-01-29T15:58:49.318Z,2.10
2019-01-29T16:01:38.186Z,2.00
2019-01-29T16:04:27.194Z,1.90
2019-01-29T16:07:16.175Z,1.70
2019-01-29T16:10:25.848Z,1.70
2019-01-29T16:13:15.160Z,1.70
2019-01-29T16:16:06.114Z,1.60
2019-01-29T16:18:55.151Z,1.50
2019-01-29T16:21:39.212Z,1.50
2019-01-29T16:24:28.241Z,1.40
2019-01-29T16:27:22.575Z,1.40
2019-01-29T16:29:48.862Z,1.30
2019-01-29T16:32:38.061Z,1.30
2019-01-29T16:35:48.000Z,1.30
2019-01-29T16:38:36.924Z,1.20
2019-01-29T16:41:27.575Z,1.10
2019-01-29T16:44:18.135Z,1.00
2019-01-29T16:47:08.703Z,1.00
2019-01-29T16:49:59.270Z,1.00
2019-01-29T16:52:48.274Z,1.00
2019-01-29T16:55:37.315Z,1.00
2019-01-29T16:58:26.372Z,1.10
2019-01-29T17:01:34.702Z,1.20
2019-01-29T17:04:23.691Z,1.30
2019-01-29T17:07:12.714Z,1.40
2019-01-29T17:10:19.679Z,1.40
2019-01-29T17:13:08.880Z,1.50
2019-01-29T17:16:16.112Z,1.50
2019-01-29T17:19:05.020Z,1.50
2019-01-29T17:21:49.752Z,1.50
2019-01-29T17:24:38.982Z,1.50
2019-01-29T17:30:47.649Z,1.30
2019-01-29T17:33:36.499Z,1.10
2019-01-29T17:36:25.692Z,1.10
2019-01-29T17:39:16.294Z,0.90
2019-01-29T17:42:07.050Z,0.80
2019-01-29T17:44:56.151Z,0.60
2019-01-29T17:47:45.282Z,0.60
2019-01-29T17:50:55.044Z,0.50
2019-01-29T17:53:44.058Z,0.60
2019-01-29T17:56:34.554Z,0.40
2019-01-29T17:59:23.515Z,0.40
2019-01-29T18:02:15.143Z,0.30
2019-01-29T18:08:25.863Z,0.10
2019-01-29T18:11:14.806Z,0.00
2019-01-29T18:14:04.508Z,0.00
2019-01-29T18:16:55.087Z,0.00
2019-01-29T18:23:10.424Z,-0.10
2019-01-29T18:25:59.424Z,-0.10
2019-01-29T18:29:08.093Z,-0.10
2019-01-29T18:31:57.146Z,-0.10
2019-01-29T18:34:46.458Z,-0.10
2019-01-29T18:37:35.540Z,0.00
2019-01-29T18:41:04.617Z,0.00
2019-01-29T18:43:53.593Z,0.00
2019-01-29T18:46:42.780Z,0.00
2019-01-29T18:49:31.845Z,0.00
2019-01-29T18:52:20.990Z,0.10
2019-01-29T18:55:29.481Z,0.20
2019-01-29T18:58:18.330Z,0.30
2019-01-29T19:01:07.562Z,0.40
2019-01-29T19:03:56.679Z,0.40
2019-01-29T19:09:47.825Z,0.70
2019-01-29T19:13:12.693Z,0.60
2019-01-29T19:27:25.193Z,0.60
2019-01-29T19:33:53.841Z,0.40
2019-01-29T19:36:42.974Z,0.30
2019-01-29T19:39:32.054Z,0.30
2019-01-29T19:42:27.363Z,0.20
2019-01-29T19:45:30.599Z,0.20
2019-01-29T19:48:19.860Z,0.20
2019-01-29T19:51:08.770Z,0.20
2019-01-29T19:53:57.091Z,0.30
2019-01-29T19:56:45.255Z,0.30
2019-01-29T19:59:33.342Z,0.00
2019-01-29T20:02:21.937Z,0.20
2019-01-29T20:05:09.876Z,0.20
2019-01-29T20:07:58.066Z,0.20
2019-01-29T20:10:47.810Z,0.20
2019-01-29T20:16:35.544Z,0.30
2019-01-29T20:19:43.121Z,0.30
2019-01-29T20:22:24.609Z,0.30
2019-01-29T20:28:42.529Z,0.30
2019-01-29T20:31:29.291Z,0.30
2019-01-29T20:34:45.187Z,0.30
2019-01-29T20:37:33.418Z,0.30
2019-01-29T20:40:46.109Z,0.30
2019-01-29T20:43:34.201Z,0.30
2019-01-29T20:49:31.209Z,0.20
2019-01-29T20:52:19.274Z,0.20
2019-01-29T20:55:25.208Z,0.20
2019-01-29T20:58:13.262Z,0.30
2019-01-29T21:01:01.324Z,0.20
2019-01-29T21:03:50.955Z,0.20
2019-01-29T21:06:39.028Z,0.20
2019-01-29T21:09:28.611Z,0.20
2019-01-29T21:15:25.275Z,0.10
2019-01-29T21:18:32.542Z,0.20
2019-01-29T21:21:47.480Z,0.20
2019-01-29T21:24:37.848Z,0.10
2019-01-29T21:27:26.060Z,0.10
2019-01-29T21:30:14.246Z,0.10
2019-01-29T21:33:02.331Z,0.00
2019-01-29T21:35:50.433Z,0.10
2019-01-29T21:41:40.940Z,0.00
2019-01-29T21:48:02.542Z,0.00
2019-01-29T21:50:44.543Z,-0.10
2019-01-29T21:53:25.842Z,-0.20
2019-01-29T21:58:52.095Z,-0.20
2019-01-29T22:01:33.191Z,-0.20
2019-01-29T22:07:57.627Z,-0.30
2019-01-29T22:10:45.912Z,-0.40
2019-01-29T22:13:53.325Z,-0.40
2019-01-29T22:17:00.764Z,-0.50
2019-01-29T22:20:02.335Z,-0.50
2019-01-29T22:22:51.192Z,-0.60
2019-01-29T22:25:30.794Z,-0.60
2019-01-29T22:28:18.755Z,-0.70
2019-01-29T22:31:06.754Z,-0.70
2019-01-29T22:33:54.398Z,-0.70
2019-01-29T22:36:42.333Z,-0.70
2019-01-29T22:39:30.294Z,-0.60
2019-01-29T22:42:18.231Z,-0.50
2019-01-29T22:45:06.280Z,-0.30
2019-01-29T22:47:54.242Z,-0.30
2019-01-29T22:50:42.238Z,-0.20
2019-01-29T22:53:31.058Z,-0.60
2019-01-29T22:56:19.121Z,-0.10
2019-01-29T22:59:07.899Z,0.00
2019-01-29T23:01:56.799Z,0.00
2019-01-29T23:04:45.655Z,0.00
2019-01-29T23:07:34.619Z,0.00
2019-01-29T23:10:22.767Z,-0.10
2019-01-29T23:13:10.709Z,-0.20
2019-01-29T23:16:18.208Z,-0.40
2019-01-29T23:19:06.176Z,-0.40
2019-01-29T23:21:54.112Z,-0.50
2019-01-29T23:27:44.738Z,-0.70
2019-01-29T23:30:34.523Z,-0.80
2019-01-29T23:33:23.630Z,-0.80
2019-01-29T23:36:12.582Z,-0.80
2019-01-29T23:42:32.167Z,-0.90
2019-01-29T23:45:21.110Z,-0.90
2019-01-29T23:48:10.011Z,-0.90
2019-01-29T23:50:58.943Z,-0.90
2019-01-29T23:53:47.854Z,-1.00
2019-01-29T23:56:36.718Z,-1.00
2019-01-29T23:59:27.154Z,-1.00
